Time,TemperatureF,DewpointF,PressureIn,WindDirection,WindDirectionDegrees,WindSpeedMPH,WindSpeedGustMPH,Humidity,HourlyPrecipIn,Conditions,Clouds,dailyrainin,SoftwareType,DateUTC
2013-10-27 00:02:00,-999.0,-99.9,29.80,North,0,0.0,1.0,-999,-99.99,,,-99.99,,2013-10-27 04:02:00,
2013-10-27 00:13:00,45.0,32.0,29.80,North,0,0.0,1.0,61,0.00,,,0.00,,2013-10-27 04:13:00,
2013-10-27 00:24:00,45.0,32.0,29.80,North,0,0.0,1.0,61,0.00,,,0.00,,2013-10-27 04:24:00,
2013-10-27 00:54:00,45.0,33.0,29.79,North,0,0.0,2.0,62,0.00,,,0.00,,2013-10-27 04:54:00,
2013-10-27 01:23:00,45.0,33.0,29.79,North,0,0.0,3.0,62,0.00,,,0.00,,2013-10-27 05:23:00,
2013-10-27 01:52:00,45.0,33.0,29.79,North,0,0.0,1.0,62,0.00,,,0.00,,2013-10-27 05:52:00,
2013-10-27 02:22:00,45.0,33.0,29.78,North,0,0.0,2.0,62,0.00,,,0.00,,2013-10-27 06:22:00,
2013-10-27 02:42:00,45.0,34.0,29.78,North,0,0.0,7.0,64,0.00,,,0.00,,2013-10-27 06:42:00,
2013-10-27 02:53:00,45.0,35.0,29.78,NW,306,7.0,13.0,68,0.00,,,0.00,,2013-10-27 06:53:00,
2013-10-27 03:02:00,45.0,35.0,29.78,NW,306,7.0,13.0,68,0.00,,,0.00,,2013-10-27 07:02:00,
2013-10-27 03:12:00,45.0,35.0,29.78,NW,306,7.0,13.0,68,0.00,,,0.00,,2013-10-27 07:12:00,
2013-10-27 03:22:00,43.0,35.0,29.78,NW,311,2.0,6.0,74,0.00,,,0.00,,2013-10-27 07:22:00,
2013-10-27 03:52:00,42.0,36.0,29.78,North,0,0.0,2.0,80,0.00,,,0.00,,2013-10-27 07:52:00,
2013-10-27 04:11:00,42.0,37.0,29.77,North,0,0.0,1.0,82,0.00,,,0.00,,2013-10-27 08:11:00,
2013-10-27 04:22:00,42.0,37.0,29.77,North,0,0.0,1.0,82,0.00,,,0.00,,2013-10-27 08:22:00,
2013-10-27 04:52:00,40.0,36.0,29.75,North,0,0.0,0.0,86,0.00,,,0.00,,2013-10-27 08:52:00,
2013-10-27 05:02:00,40.0,36.0,29.75,North,0,0.0,0.0,86,0.00,,,0.00,,2013-10-27 09:02:00,
2013-10-27 05:21:00,40.0,36.0,29.77,North,0,0.0,0.0,87,0.00,,,0.00,,2013-10-27 09:21:00,
2013-10-27 05:54:00,40.0,36.0,29.77,North,0,0.0,0.0,87,0.00,,,0.00,,2013-10-27 09:54:00,
2013-10-27 06:12:00,41.0,37.0,29.77,North,0,0.0,0.0,87,0.00,,,0.00,,2013-10-27 10:12:00,
2013-10-27 06:23:00,41.0,37.0,29.77,North,0,0.0,3.0,84,0.00,,,0.00,,2013-10-27 10:23:00,
2013-10-27 06:53:00,42.0,37.0,29.78,NW,324,2.0,5.0,83,0.00,,,0.00,,2013-10-27 10:53:00,
2013-10-27 07:22:00,42.0,36.0,29.80,North,0,0.0,4.0,78,0.00,,,0.00,,2013-10-27 11:22:00,
2013-10-27 07:52:00,42.0,36.0,29.80,North,0,0.0,1.0,78,0.00,,,0.00,,2013-10-27 11:52:00,
2013-10-27 08:12:00,42.0,35.0,29.82,NW,313,1.0,3.0,77,0.00,,,0.00,,2013-10-27 12:12:00,
2013-10-27 08:22:00,42.0,35.0,29.82,NW,313,1.0,3.0,77,0.00,,,0.00,,2013-10-27 12:22:00,
2013-10-27 08:52:00,42.0,35.0,29.83,North,0,0.0,3.0,77,0.00,,,0.00,,2013-10-27 12:52:00,
2013-10-27 09:22:00,42.0,35.0,29.83,North,0,0.0,3.0,77,0.00,,,0.00,,2013-10-27 13:22:00,
2013-10-27 09:32:00,42.0,35.0,29.83,North,0,0.0,3.0,77,0.00,,,0.00,,2013-10-27 13:32:00,
2013-10-27 09:52:00,42.0,35.0,29.83,North,0,0.0,3.0,77,0.00,,,0.00,,2013-10-27 13:52:00,
2013-10-27 10:22:00,43.0,36.0,29.85,North,0,0.0,2.0,75,0.00,,,0.00,,2013-10-27 14:22:00,
2013-10-27 10:52:00,44.0,36.0,29.85,NW,310,3.0,13.0,73,0.00,,,0.00,,2013-10-27 14:52:00,
2013-10-27 11:01:00,44.0,36.0,29.85,NW,310,3.0,13.0,73,0.00,,,0.00,,2013-10-27 15:01:00,
2013-10-27 11:22:00,44.0,36.0,29.86,NW,319,4.0,10.0,74,0.00,,,0.00,,2013-10-27 15:22:00,
2013-10-27 11:54:00,44.0,36.0,29.86,NW,319,3.0,11.0,72,0.00,,,0.00,,2013-10-27 15:54:00,
2013-10-27 12:24:00,45.0,35.0,29.86,WNW,298,4.0,11.0,69,0.01,,,0.01,,2013-10-27 16:24:00,
2013-10-27 12:34:00,45.0,35.0,29.86,WNW,298,4.0,11.0,69,0.01,,,0.01,,2013-10-27 16:34:00,
2013-10-27 12:43:00,45.0,35.0,29.86,WNW,298,4.0,11.0,69,0.01,,,0.01,,2013-10-27 16:43:00,
2013-10-27 12:53:00,46.0,34.0,29.86,WNW,303,9.0,14.0,63,0.01,,,0.01,,2013-10-27 16:53:00,
2013-10-27 13:22:00,47.0,34.0,29.86,WNW,297,3.0,16.0,61,0.00,,,0.01,,2013-10-27 17:22:00,
2013-10-27 13:53:00,46.0,33.0,29.86,NW,311,5.0,13.0,61,0.00,,,0.01,,2013-10-27 17:53:00,
2013-10-27 14:22:00,46.0,32.0,29.86,WNW,298,5.0,14.0,59,0.00,,,0.01,,2013-10-27 18:22:00,
2013-10-27 14:43:00,47.0,34.0,29.86,WNW,302,9.0,13.0,60,0.00,,,0.01,,2013-10-27 18:43:00,
2013-10-27 14:52:00,46.0,34.0,29.86,NW,316,7.0,13.0,62,0.00,,,0.01,,2013-10-27 18:52:00,
2013-10-27 15:22:00,46.0,34.0,29.87,NW,325,4.0,14.0,62,0.00,,,0.01,,2013-10-27 19:22:00,
2013-10-27 15:42:00,47.0,35.0,29.87,WNW,300,7.0,15.0,63,0.00,,,0.01,,2013-10-27 19:42:00,
2013-10-27 15:52:00,47.0,35.0,29.88,NW,316,6.0,15.0,62,0.00,,,0.01,,2013-10-27 19:52:00,
2013-10-27 16:22:00,46.0,34.0,29.88,NW,315,7.0,11.0,63,0.00,,,0.01,,2013-10-27 20:22:00,
2013-10-27 16:52:00,46.0,34.0,29.89,NW,306,8.0,13.0,63,0.00,,,0.01,,2013-10-27 20:52:00,
2013-10-27 17:22:00,46.0,34.0,29.90,NW,310,5.0,9.0,63,0.00,,,0.01,,2013-10-27 21:22:00,
2013-10-27 17:43:00,45.0,33.0,29.90,WNW,301,3.0,11.0,63,0.00,,,0.01,,2013-10-27 21:43:00,
2013-10-27 17:54:00,45.0,34.0,29.90,NNW,333,3.0,10.0,64,0.00,,,0.01,,2013-10-27 21:54:00,
2013-10-27 18:24:00,45.0,35.0,29.92,NW,321,1.0,9.0,68,0.00,,,0.01,,2013-10-27 22:24:00,
2013-10-27 18:43:00,44.0,34.0,29.93,NW,313,2.0,6.0,69,0.00,,,0.01,,2013-10-27 22:43:00,
2013-10-27 18:54:00,43.0,34.0,29.94,North,0,0.0,10.0,71,0.00,,,0.01,,2013-10-27 22:54:00,
2013-10-27 19:12:00,43.0,34.0,29.94,NW,318,6.0,12.0,71,0.00,,,0.01,,2013-10-27 23:12:00,
2013-10-27 19:22:00,43.0,35.0,29.95,NW,325,6.0,10.0,73,0.00,,,0.01,,2013-10-27 23:22:00,
2013-10-27 19:52:00,42.0,34.0,29.96,NNE,29,1.0,4.0,73,0.00,,,0.01,,2013-10-27 23:52:00,
2013-10-27 20:11:00,42.0,34.0,29.97,NW,319,1.0,5.0,73,0.00,,,0.01,,2013-10-28 00:11:00,
2013-10-27 20:22:00,42.0,34.0,29.97,NW,310,5.0,11.0,74,0.00,,,0.01,,2013-10-28 00:22:00,
2013-10-27 20:32:00,42.0,34.0,29.97,NW,310,5.0,11.0,74,0.00,,,0.01,,2013-10-28 00:32:00,
2013-10-27 20:43:00,42.0,34.0,29.97,NW,310,5.0,11.0,74,0.00,,,0.01,,2013-10-28 00:43:00,
2013-10-27 20:52:00,41.0,34.0,29.98,North,0,0.0,5.0,75,0.00,,,0.01,,2013-10-28 00:52:00,
2013-10-27 21:12:00,41.0,34.0,29.98,North,0,0.0,3.0,76,0.00,,,0.01,,2013-10-28 01:12:00,
2013-10-27 21:21:00,41.0,34.0,29.98,North,0,0.0,3.0,76,0.00,,,0.01,,2013-10-28 01:21:00,
2013-10-27 21:32:00,41.0,34.0,29.98,North,0,0.0,3.0,76,0.00,,,0.01,,2013-10-28 01:32:00,
2013-10-27 21:52:00,41.0,34.0,29.99,NW,315,1.0,5.0,77,0.00,,,0.01,,2013-10-28 01:52:00,
2013-10-27 22:12:00,41.0,35.0,30.00,WNW,300,2.0,5.0,79,0.00,,,0.01,,2013-10-28 02:12:00,
2013-10-27 22:22:00,41.0,35.0,30.01,NW,311,1.0,4.0,78,0.00,,,0.01,,2013-10-28 02:22:00,
2013-10-27 22:53:00,41.0,35.0,30.01,North,0,0.0,4.0,78,0.00,,,0.01,,2013-10-28 02:53:00,
2013-10-27 23:22:00,37.0,33.0,30.02,North,0,0.0,0.0,84,0.00,,,0.01,,2013-10-28 03:22:00,
2013-10-27 23:44:00,36.0,32.0,30.02,North,0,0.0,0.0,85,0.00,,,0.01,,2013-10-28 03:44:00,
2013-10-27 23:54:00,36.0,32.0,30.02,North,0,0.0,0.0,85,0.00,,,0.01,,2013-10-28 03:54:00,